Terminal Aerodrome Forecast
Issued by NWS Austin/San Antonio, TX

Home | Current Version | Previous Version | Text Only | Print | Product List | Glossary On
Versions: 1 2 3 4 5 6 7 8 9 10 11 12 13 14 15 16 17 18 19 20 21 22 23 24 25 26 27 28 29
000
FTUS44 KEWX 180635 AAA
TAFDRT
TAF AMD
KDRT 180635Z 1807/1906 31010KT P6SM OVC012
      TEMPO 1807/1808 6SM SHRA SCT015 OVC030
     FM181500 32006KT P6SM FEW012 OVC035
     FM182000 34004KT P6SM FEW035 SCT250=

USA.gov is the U.S. government's official web portal to all federal, state and local government web resources and services.